Time;durP1;ratioP1;P1;durP2;ratioP2;P2;SDS_P1;SDS_P2;PMS_P1;PMS_P2;Temp;Humidity;BMP_temperature;BMP_pressure;BME280_temperature;BME280_humidity;BME280_pressure;Samples;Min_cycle;Max_cycle;Signal;HPM_P1;HPM_P2
2022/08/11 00:01:54;;;;;;;11.00;6.28;;;;;;;14.88;65.90;97914.06;1505410;93;25954;-76
2022/08/11 00:04:24;;;;;;;8.75;5.83;;;;;;;14.81;65.95;97913.32;1489687;96;26462;-76
2022/08/11 00:06:52;;;;;;;9.60;5.75;;;;;;;14.76;66.00;97909.38;1489651;96;25822;-75
2022/08/11 00:09:23;;;;;;;7.92;6.20;;;;;;;14.74;66.00;97909.30;1489799;96;28232;-74
2022/08/11 00:11:55;;;;;;;7.62;5.75;;;;;;;14.69;66.06;97911.88;1471596;96;25870;-75
2022/08/11 00:14:32;;;;;;;7.97;5.78;;;;;;;14.64;66.14;97914.42;1552588;92;25900;-75
2022/08/11 00:17:03;;;;;;;10.95;6.62;;;;;;;14.57;66.22;97913.15;1559068;92;26512;-75
2022/08/11 00:19:46;;;;;;;10.65;6.03;;;;;;;14.54;66.23;97908.16;1556179;92;25815;-74
2022/08/11 00:22:20;;;;;;;8.63;6.17;;;;;;;14.45;66.23;97912.22;1622636;88;28297;-74
2022/08/11 00:24:48;;;;;;;9.30;6.35;;;;;;;14.33;66.48;97912.09;1627043;88;25845;-75
2022/08/11 00:27:15;;;;;;;11.05;6.05;;;;;;;14.21;66.60;97913.88;1627355;88;25758;-76
2022/08/11 00:29:53;;;;;;;8.13;5.80;;;;;;;14.20;66.78;97908.66;1627372;88;25779;-75
2022/08/11 00:32:21;;;;;;;7.15;5.08;;;;;;;14.21;66.79;97908.97;1625874;88;25299;-76
2022/08/11 00:34:48;;;;;;;9.20;5.53;;;;;;;14.12;66.87;97906.23;1627190;88;27393;-76
2022/08/11 00:37:21;;;;;;;7.42;5.42;;;;;;;14.13;66.96;97914.69;1627120;88;25916;-75
2022/08/11 00:39:53;;;;;;;6.92;5.95;;;;;;;14.14;66.96;97908.17;1627274;88;26156;-75
2022/08/11 00:43:08;;;;;;;6.70;5.25;;;;;;;14.13;66.97;97912.77;1627189;88;26473;-75
2022/08/11 00:45:42;;;;;;;8.80;5.78;;;;;;;14.13;66.95;97910.06;1637012;86;26156;-74
2022/08/11 00:48:23;;;;;;;7.58;5.55;;;;;;;14.09;67.03;97909.38;1648661;86;27392;-74
2022/08/11 00:51:19;;;;;;;8.05;5.03;;;;;;;14.06;67.09;97912.01;1650981;86;25748;-74
2022/08/11 00:54:27;;;;;;;8.90;5.85;;;;;;;14.04;67.15;97912.22;1652244;86;25725;-74
2022/08/11 00:57:19;;;;;;;7.87;5.20;;;;;;;14.03;67.20;97910.56;1654076;86;25812;-74
2022/08/11 01:00:12;;;;;;;6.97;5.65;;;;;;;14.00;67.29;97903.41;1654120;86;25803;-75
2022/08/11 01:03:06;;;;;;;6.25;5.53;;;;;;;13.94;67.35;97903.75;1586725;90;27481;-74
2022/08/11 01:05:59;;;;;;;8.18;5.12;;;;;;;13.90;67.41;97901.16;1591476;90;25784;-75
2022/08/11 01:08:40;;;;;;;7.08;4.65;;;;;;;13.88;67.26;97907.36;1607405;89;25814;-76
2022/08/11 01:11:46;;;;;;;6.17;4.95;;;;;;;13.86;67.17;97898.60;1566682;91;25813;-75
2022/08/11 01:14:57;;;;;;;9.85;5.10;;;;;;;13.83;67.19;97897.67;1627278;88;25862;-75
2022/08/11 01:17:38;;;;;;;6.70;4.33;;;;;;;13.79;67.21;97901.87;1626782;88;27631;-76
2022/08/11 01:20:44;;;;;;;7.30;4.78;;;;;;;13.77;67.18;97899.90;1626702;88;25787;-76
2022/08/11 01:23:34;;;;;;;7.60;5.08;;;;;;;13.73;67.17;97900.05;1626624;88;25843;-76
2022/08/11 01:26:22;;;;;;;9.40;5.20;;;;;;;13.70;67.14;97895.05;1626829;88;26389;-75
2022/08/11 01:29:25;;;;;;;6.00;4.65;;;;;;;13.61;67.12;97903.98;1605963;89;25794;-74
2022/08/11 01:32:41;;;;;;;6.65;4.50;;;;;;;13.54;67.33;97902.34;1606310;89;33290;-75
2022/08/11 01:35:35;;;;;;;7.03;4.58;;;;;;;13.52;67.45;97897.69;1606175;89;25428;-75
2022/08/11 01:38:28;;;;;;;11.57;5.25;;;;;;;13.51;67.38;97904.16;1492493;96;25936;-75
2022/08/11 01:41:25;;;;;;;7.00;4.70;;;;;;;13.47;67.39;97901.05;1525986;93;26527;-75
2022/08/11 01:47:50;;;;;;;8.23;5.25;;;;;;;13.36;67.41;97900.38;1502636;95;27118;-75
2022/08/11 01:50:48;;;;;;;8.53;5.10;;;;;;;13.33;67.54;97896.74;1524909;94;26045;-73
2022/08/11 01:53:35;;;;;;;8.43;4.95;;;;;;;13.24;67.64;97900.23;1525057;94;25419;-75
2022/08/11 01:56:14;;;;;;;6.85;4.90;;;;;;;13.15;67.59;97901.54;1502232;94;25877;-74
2022/08/11 01:59:05;;;;;;;5.08;4.35;;;;;;;13.11;67.76;97894.84;1502107;94;26488;-74
2022/08/11 02:02:04;;;;;;;5.17;4.65;;;;;;;13.07;67.84;97899.55;1502070;94;27499;-74
2022/08/11 02:04:36;;;;;;;7.70;4.80;;;;;;;13.02;67.83;97893.95;1497750;94;25981;-75
2022/08/11 02:07:29;;;;;;;6.25;4.90;;;;;;;12.93;68.00;97890.11;1473986;96;25835;-76
2022/08/11 02:13:25;;;;;;;8.05;4.85;;;;;;;12.94;68.14;97895.01;1489388;96;26792;-75
2022/08/11 02:15:58;;;;;;;6.22;5.17;;;;;;;12.94;68.23;97892.30;1488056;96;27632;-75
2022/08/11 02:24:29;;;;;;;8.53;5.72;;;;;;;12.89;68.48;97897.02;1438463;98;25825;-75
2022/08/11 02:27:02;;;;;;;;;;;;;;;12.88;68.62;97898.59;1424832;99;25896;-76
2022/08/11 02:29:32;;;;;;;;;;;;;;;12.90;68.99;97896.50;1440887;99;28198;-75
2022/08/11 02:34:59;;;;;;;10.28;5.25;;;;;;;12.86;68.78;97892.55;1409301;101;25908;-74
2022/08/11 02:38:12;;;;;;;6.55;5.00;;;;;;;12.84;68.87;97895.98;1390051;103;25828;-75
2022/08/11 02:40:50;;;;;;;7.72;4.70;;;;;;;12.84;68.91;97897.34;1406379;100;25898;-75
2022/08/11 02:43:29;;;;;;;8.88;5.42;;;;;;;12.83;69.01;97901.09;1387295;103;27477;-74
2022/08/11 02:46:28;;;;;;;7.22;5.05;;;;;;;12.82;69.04;97901.61;1385619;103;25909;-75
2022/08/11 02:52:12;;;;;;;9.73;5.42;;;;;;;12.82;69.18;97907.03;1387094;103;25961;-75
2022/08/11 02:55:14;;;;;;;6.30;5.20;;;;;;;12.80;69.21;97897.48;1294277;110;26160;-76
2022/08/11 02:57:52;;;;;;;7.53;5.12;;;;;;;12.81;69.25;97896.41;1294345;110;32620;-75
2022/08/11 03:00:22;;;;;;;8.35;4.92;;;;;;;12.81;69.20;97894.53;1286468;111;26722;-75
2022/08/11 03:02:58;;;;;;;7.00;4.78;;;;;;;12.81;69.21;97896.41;1324955;108;25886;-76
2022/08/11 03:05:33;;;;;;;7.80;5.40;;;;;;;12.82;69.24;97898.07;1325010;108;25783;-75
2022/08/11 03:08:36;;;;;;;9.55;5.20;;;;;;;12.82;69.32;97896.20;1324900;106;25925;-75
2022/08/11 03:17:31;;;;;;;5.85;5.12;;;;;;;12.82;69.45;97895.36;1338518;107;26646;-76
2022/08/11 03:20:36;;;;;;;6.60;5.20;;;;;;;12.82;69.48;97901.61;1321119;107;25950;-76
2022/08/11 03:23:27;;;;;;;5.90;4.70;;;;;;;12.82;69.48;97905.68;1315069;108;25967;-74
2022/08/11 03:26:11;;;;;;;7.92;5.50;;;;;;;12.82;69.50;97898.91;1315667;107;28294;-74
2022/08/11 03:29:05;;;;;;;7.45;5.20;;;;;;;12.81;69.59;97904.53;1315558;108;25828;-74
2022/08/11 03:31:37;;;;;;;8.50;4.97;;;;;;;12.82;69.65;97902.14;1368390;101;25872;-76
2022/08/11 03:34:17;;;;;;;8.85;5.65;;;;;;;12.81;69.72;97900.47;1449639;98;53503;-76
2022/08/11 03:43:50;;;;;;;9.18;5.90;;;;;;;12.80;70.03;97898.28;1487890;96;26024;-76
2022/08/11 03:46:38;;;;;;;7.90;6.10;;;;;;;12.81;70.06;97899.11;1488273;96;27625;-75
2022/08/11 03:49:38;;;;;;;8.85;5.45;;;;;;;12.81;70.16;97897.23;1470580;97;25802;-74
2022/08/11 03:52:38;;;;;;;7.33;5.45;;;;;;;12.83;70.15;97891.61;1483700;96;25824;-75
2022/08/11 03:55:46;;;;;;;9.40;5.78;;;;;;;12.84;70.22;97891.92;1490744;95;27401;-75
2022/08/11 03:58:42;;;;;;;8.40;5.67;;;;;;;12.84;70.34;97894.63;1514295;94;25783;-76
2022/08/11 04:01:46;;;;;;;10.25;5.78;;;;;;;12.85;70.44;97893.59;1514298;94;25836;-74
2022/08/11 04:04:35;;;;;;;9.65;5.90;;;;;;;12.86;70.49;97891.19;1514396;94;25827;-75
2022/08/11 04:07:38;;;;;;;9.48;6.47;;;;;;;12.86;70.65;97893.90;1514341;94;26996;-75
2022/08/11 04:10:49;;;;;;;9.70;8.00;;;;;;;12.88;70.69;97889.11;1514341;94;27431;-76
2022/08/11 04:17:18;;;;;;;13.43;8.55;;;;;;;12.95;70.75;97888.02;1514000;94;25810;-75
2022/08/11 04:19:56;;;;;;;9.98;8.33;;;;;;;12.98;70.84;97888.13;1526838;91;25826;-75
2022/08/11 04:22:36;;;;;;;15.48;13.60;;;;;;;12.94;70.96;97887.71;1566410;91;26651;-76
2022/08/11 04:25:29;;;;;;;18.48;15.35;;;;;;;12.93;71.11;97895.53;1581666;90;27416;-76
2022/08/11 04:28:37;;;;;;;28.25;24.35;;;;;;;12.89;71.15;97892.13;1582393;90;25835;-75
2022/08/11 04:31:40;;;;;;;29.23;22.32;;;;;;;12.92;71.26;97882.22;1579069;90;25818;-75
2022/08/11 04:34:34;;;;;;;18.32;16.05;;;;;;;12.94;71.35;97881.45;1584044;89;25788;-75
2022/08/11 04:37:33;;;;;;;17.52;14.30;;;;;;;12.99;71.32;97883.02;1642044;85;25727;-75
2022/08/11 04:40:41;;;;;;;16.12;10.72;;;;;;;13.02;71.31;97885.83;1759254;80;28108;-73
2022/08/11 04:43:22;;;;;;;14.25;8.95;;;;;;;13.05;71.27;97886.20;1785222;80;25740;-73
2022/08/11 04:46:06;;;;;;;12.18;8.30;;;;;;;13.08;71.24;97889.84;1784824;80;25664;-73
2022/08/11 05:01:42;;;;;;;11.10;6.72;;;;;;;13.23;71.43;97895.03;1734156;82;25803;-75
2022/08/11 05:07:48;;;;;;;8.15;6.78;;;;;;;13.25;71.57;97901.91;1722031;83;25726;-76
2022/08/11 05:10:36;;;;;;;11.88;7.30;;;;;;;13.28;71.67;97902.80;1721942;83;27387;-76
2022/08/11 05:36:34;;;;;;;11.28;7.00;;;;;;;13.82;72.25;97897.89;1625711;88;26875;-75
2022/08/11 05:58:47;;;;;;;8.63;5.50;;;;;;;14.31;71.83;97903.33;1676884;85;25792;-74
2022/08/11 06:01:29;;;;;;;9.15;5.62;;;;;;;14.41;71.81;97909.11;1676774;85;26277;-74
2022/08/11 06:04:15;;;;;;;7.53;5.75;;;;;;;14.52;71.75;97913.50;1676258;85;25711;-74
2022/08/11 06:07:11;;;;;;;5.78;4.90;;;;;;;14.63;71.81;97905.97;1676811;85;28233;-75
2022/08/11 06:09:48;;;;;;;7.62;5.12;;;;;;;14.72;71.75;97901.40;1676791;85;25955;-73
2022/08/11 06:12:36;;;;;;;7.50;4.78;;;;;;;14.83;71.56;97903.89;1621436;88;25776;-75
2022/08/11 06:15:06;;;;;;;6.05;4.42;;;;;;;14.91;71.54;97900.03;1596311;89;26554;-74
2022/08/11 06:17:38;;;;;;;6.72;4.42;;;;;;;15.00;71.62;97905.45;1597396;89;25836;-73
2022/08/11 06:20:11;;;;;;;6.12;4.62;;;;;;;15.09;71.61;97899.47;1605169;89;32742;-73
2022/08/11 06:22:40;;;;;;;6.40;4.70;;;;;;;15.20;71.58;97896.55;1587243;89;25512;-75
2022/08/11 06:25:08;;;;;;;5.47;4.67;;;;;;;15.32;71.58;97899.31;1617458;88;25740;-74
2022/08/11 06:27:38;;;;;;;6.12;3.77;;;;;;;15.41;71.47;97893.85;1623172;88;26513;-74
2022/08/11 06:30:12;;;;;;;8.25;3.87;;;;;;;15.51;71.39;97895.48;1623076;88;25792;-74
2022/08/11 06:32:36;;;;;;;5.12;4.47;;;;;;;15.63;71.01;97896.92;1620048;88;27531;-74
2022/08/11 06:35:14;;;;;;;4.70;3.85;;;;;;;15.74;70.77;97890.68;1623128;88;25804;-75
2022/08/11 06:38:06;;;;;;;5.10;4.08;;;;;;;15.87;70.70;97886.92;1621539;88;25872;-75
2022/08/11 06:44:13;;;;;;;5.55;4.22;;;;;;;16.12;70.11;97884.84;1628367;87;25751;-74
2022/08/11 06:46:54;;;;;;;8.48;4.35;;;;;;;16.27;70.01;97883.03;1631295;87;27452;-74
2022/08/11 06:52:13;;;;;;;5.05;4.53;;;;;;;16.51;69.65;97881.97;1707981;83;26465;-76
2022/08/11 06:54:43;;;;;;;6.55;4.47;;;;;;;16.64;69.61;97884.48;1708447;83;25702;-76
2022/08/11 07:03:02;;;;;;;6.47;5.20;;;;;;;17.03;69.31;97872.48;1708011;83;25768;-75
2022/08/11 07:06:00;;;;;;;10.13;5.00;;;;;;;17.16;69.34;97870.84;1705967;83;25811;-76
2022/08/11 07:17:36;;;;;;;3.52;3.20;;;;;;;17.75;68.17;97861.92;1610034;87;25649;-76
2022/08/11 07:28:54;;;;;;;6.95;3.85;;;;;;;18.43;67.75;97860.84;1610347;87;28225;-74
2022/08/11 07:31:32;;;;;;;5.85;3.10;;;;;;;18.55;67.41;97857.47;1610337;88;26525;-74
2022/08/11 07:34:25;;;;;;;5.05;2.83;;;;;;;18.69;67.27;97862.91;1610274;87;25823;-76
2022/08/11 07:36:55;;;;;;;3.00;2.50;;;;;;;18.86;66.73;97863.67;1610245;87;26456;-75
2022/08/11 07:39:26;;;;;;;4.70;2.80;;;;;;;19.08;66.37;97862.88;1610321;87;25311;-76
2022/08/11 07:41:57;;;;;;;4.50;2.72;;;;;;;19.26;65.89;97865.27;1619668;84;27468;-76
2022/08/11 07:44:28;;;;;;;6.90;3.05;;;;;;;19.33;65.54;97868.63;1652541;86;26016;-76
2022/08/11 07:52:32;;;;;;;4.87;3.17;;;;;;;19.52;64.62;97865.05;1633231;87;26021;-75
2022/08/11 07:55:04;;;;;;;4.62;2.52;;;;;;;19.63;64.44;97865.45;1656049;85;27569;-76
2022/08/11 08:19:48;;;;;;;4.90;2.87;;;;;;;20.44;61.65;97875.23;1722846;82;25902;-76
2022/08/11 08:22:19;;;;;;;5.80;2.58;;;;;;;20.38;61.42;97874.10;1720884;83;27570;-76
2022/08/11 08:24:47;;;;;;;3.70;2.70;;;;;;;20.27;61.19;97875.91;1728874;82;25712;-75
2022/08/11 08:27:14;;;;;;;5.17;2.60;;;;;;;20.18;60.98;97877.45;1719105;82;25758;-75
2022/08/11 08:32:30;;;;;;;3.75;2.87;;;;;;;20.08;61.26;97871.35;1718371;83;25779;-76
2022/08/11 08:34:58;;;;;;;3.20;2.35;;;;;;;20.19;61.31;97869.52;1720841;83;27491;-75
2022/08/11 08:37:26;;;;;;;7.58;2.60;;;;;;;20.51;60.91;97861.31;1718303;83;25819;-76
2022/08/11 08:39:53;;;;;;;2.77;2.52;;;;;;;20.53;60.45;97858.31;1721010;83;25621;-76
2022/08/11 08:42:27;;;;;;;6.53;2.42;;;;;;;20.47;60.46;97861.00;1718375;83;25717;-75
2022/08/11 08:45:07;;;;;;;3.87;2.50;;;;;;;20.49;60.44;97867.05;1718416;83;25719;-76
2022/08/11 08:47:44;;;;;;;4.47;1.90;;;;;;;20.48;59.91;97862.66;1715046;83;28243;-75
2022/08/11 08:50:18;;;;;;;4.20;2.10;;;;;;;20.45;59.72;97860.44;1720731;83;25908;-75
2022/08/11 08:52:58;;;;;;;6.65;2.45;;;;;;;20.53;59.74;97854.20;1718186;83;25767;-76
2022/08/11 08:55:28;;;;;;;2.77;1.90;;;;;;;20.70;59.63;97852.92;1631454;86;26575;-76
2022/08/11 08:57:59;;;;;;;3.33;2.40;;;;;;;20.70;59.25;97857.03;1635900;87;25858;-75
2022/08/11 09:00:25;;;;;;;7.22;2.87;;;;;;;20.66;59.18;97856.45;1628360;87;26909;-76
2022/08/11 09:02:51;;;;;;;3.60;2.60;;;;;;;20.71;59.15;97857.86;1635894;86;25772;-75
2022/08/11 09:05:19;;;;;;;3.00;2.55;;;;;;;20.84;59.15;97854.64;1635959;87;25862;-75
2022/08/11 09:07:49;;;;;;;8.48;2.60;;;;;;;20.91;59.10;97855.22;1636020;87;25776;-75
2022/08/11 09:10:19;;;;;;;3.85;2.90;;;;;;;20.94;59.06;97851.95;1636098;87;25794;-75
2022/08/11 09:12:46;;;;;;;3.65;2.42;;;;;;;21.00;59.30;97848.16;1636112;86;27944;-75
2022/08/11 09:15:15;;;;;;;5.37;2.80;;;;;;;21.05;59.46;97850.91;1635935;87;25829;-75
2022/08/11 09:17:48;;;;;;;4.08;2.80;;;;;;;21.11;59.12;97848.47;1623332;87;25818;-75
2022/08/11 09:20:21;;;;;;;4.42;2.30;;;;;;;21.13;59.04;97836.66;1623056;88;25844;-76
2022/08/11 09:28:20;;;;;;;3.33;2.20;;;;;;;21.71;57.53;97827.80;1550207;91;25769;-76
2022/08/11 09:30:53;;;;;;;3.10;2.50;;;;;;;21.71;57.53;97827.80;1550670;92;25773;-76
2022/08/11 09:33:22;;;;;;;6.22;2.33;;;;;;;22.68;57.55;97829.16;1550668;91;26954;-75
2022/08/11 09:35:51;;;;;;;4.17;2.30;;;;;;;22.68;57.55;97829.16;1550757;92;25909;-76
2022/08/11 09:41:09;;;;;;;2.05;1.77;;;;;;;23.46;56.06;97818.40;1550418;91;26034;-76
2022/08/11 09:46:29;;;;;;;4.60;2.07;;;;;;;23.29;54.03;97818.23;1550802;92;26352;-76
2022/08/11 09:48:59;;;;;;;2.72;2.00;;;;;;;23.14;54.05;97815.54;1550458;92;25543;-76
2022/08/11 09:51:30;;;;;;;3.55;2.10;;;;;;;22.86;53.92;97811.52;1595551;86;27330;-76
2022/08/11 09:54:05;;;;;;;3.58;2.52;;;;;;;22.68;54.03;97819.53;1630762;86;25824;-75
2022/08/11 09:59:19;;;;;;;3.45;2.30;;;;;;;22.52;53.62;97811.30;1630687;87;25886;-76
2022/08/11 10:01:51;;;;;;;5.33;2.67;;;;;;;22.42;53.69;97807.20;1674321;82;25821;-76
2022/08/11 10:04:30;;;;;;;3.37;2.20;;;;;;;22.43;53.74;97808.03;1716125;83;28247;-76
2022/08/11 10:07:01;;;;;;;2.83;2.10;;;;;;;22.45;53.68;97802.53;1642762;87;25847;-77
2022/08/11 10:09:45;;;;;;;5.00;2.20;;;;;;;22.91;54.47;97796.92;1663157;86;25827;-76
2022/08/11 10:17:34;;;;;;;1.80;1.70;;;;;;;24.69;53.07;97790.41;1523473;93;28167;-76
2022/08/11 10:20:03;;;;;;;5.00;2.07;;;;;;;25.17;52.07;97784.06;1539151;92;25827;-78
2022/08/11 10:28:04;;;;;;;5.65;1.98;;;;;;;25.58;49.97;97777.41;1539047;92;27040;-77
2022/08/11 10:36:06;;;;;;;2.15;1.67;;;;;;;25.33;48.98;97771.14;1539089;92;25880;-77
2022/08/11 10:38:34;;;;;;;1.92;1.70;;;;;;;25.62;49.01;97758.56;1539195;92;25785;-77
2022/08/11 10:43:46;;;;;;;4.20;1.52;;;;;;;26.30;47.88;97768.27;1537670;92;27569;-78
2022/08/11 10:49:01;;;;;;;4.62;1.45;;;;;;;26.71;46.94;97751.13;1536884;92;25870;-77
2022/08/11 10:59:46;;;;;;;2.87;1.62;;;;;;;27.10;44.85;97746.48;1594845;88;25788;-78
2022/08/11 11:02:15;;;;;;;1.67;1.47;;;;;;;26.82;44.04;97745.64;1586891;88;25787;-77
2022/08/11 11:05:02;;;;;;;1.50;1.40;;;;;;;26.52;44.36;97751.80;1599438;89;26511;-78
2022/08/11 11:07:36;;;;;;;4.20;1.45;;;;;;;26.50;44.61;97747.13;1598583;89;25853;-77
2022/08/11 11:10:06;;;;;;;2.35;1.22;;;;;;;26.51;44.42;97748.20;1558149;91;27575;-77
2022/08/11 11:21:11;;;;;;;1.95;1.32;;;;;;;25.95;43.88;97731.78;1553766;92;25950;-78
2022/08/11 11:23:52;;;;;;;3.65;1.27;;;;;;;25.81;43.82;97726.76;1506709;93;27487;-78
2022/08/11 11:26:37;;;;;;;1.70;1.60;;;;;;;25.68;44.02;97714.52;1476870;97;25831;-77
2022/08/11 11:29:45;;;;;;;1.75;1.30;;;;;;;25.61;43.97;97718.78;1476797;95;25878;-78
2022/08/11 11:32:23;;;;;;;2.95;1.80;;;;;;;25.69;44.09;97716.17;1478065;97;26791;-80
2022/08/11 11:35:04;;;;;;;2.52;1.70;;;;;;;25.87;44.34;97710.33;1480373;96;25467;-78
2022/08/11 11:37:35;;;;;;;5.00;1.72;;;;;;;26.01;44.07;97704.27;1480769;96;27401;-79
2022/08/11 11:40:12;;;;;;;4.28;1.95;;;;;;;26.01;43.80;97697.36;1480510;96;25612;-77
2022/08/11 11:42:41;;;;;;;2.35;1.50;;;;;;;26.15;44.35;97698.21;1462500;98;25941;-77
2022/08/11 11:45:10;;;;;;;5.15;1.82;;;;;;;26.36;44.02;97693.70;1462132;98;25693;-77
2022/08/11 11:47:38;;;;;;;2.83;1.40;;;;;;;26.50;44.22;97691.77;1462109;98;26003;-78
2022/08/11 11:50:07;;;;;;;3.47;1.30;;;;;;;26.69;43.53;97692.47;1462210;98;27406;-78
2022/08/11 11:52:35;;;;;;;1.52;1.12;;;;;;;26.76;43.07;97691.50;1446082;97;26022;-79
2022/08/11 11:55:03;;;;;;;1.95;1.15;;;;;;;26.65;42.72;97694.23;1424613;100;25832;-77
2022/08/11 12:03:08;;;;;;;3.05;1.45;;;;;;;26.95;42.35;97680.88;1446154;99;27420;-77
2022/08/11 12:05:36;;;;;;;2.45;1.50;;;;;;;27.03;41.61;97681.55;1430547;100;25824;-78
2022/08/11 12:10:49;;;;;;;2.02;1.30;;;;;;;27.31;41.75;97664.27;1440349;98;25848;-77
2022/08/11 12:16:03;;;;;;;3.90;1.67;;;;;;;27.39;41.21;97660.20;1419748;100;27502;-77
2022/08/11 12:18:34;;;;;;;2.90;1.20;;;;;;;27.28;40.97;97661.58;1427245;98;25833;-78
2022/08/11 12:21:03;;;;;;;2.40;1.22;;;;;;;26.95;40.53;97660.92;1431725;98;25862;-78
2022/08/11 12:29:10;;;;;;;3.02;1.70;;;;;;;26.05;41.07;97675.45;1536253;93;27554;-79
2022/08/11 12:31:39;;;;;;;4.50;1.90;;;;;;;25.82;41.42;97680.84;1520573;92;25967;-78
2022/08/11 12:34:15;;;;;;;6.65;1.92;;;;;;;25.52;41.89;97687.39;1543893;92;25874;-78
2022/08/11 12:37:02;;;;;;;4.90;1.77;;;;;;;25.34;42.58;97685.74;1544176;92;25820;-77
2022/08/11 12:45:27;;;;;;;3.20;2.33;;;;;;;24.69;44.25;97700.69;1561600;90;25827;-77
2022/08/11 12:53:45;;;;;;;5.08;2.02;;;;;;;24.03;46.18;97704.14;1537934;93;25882;-77
2022/08/11 13:07:16;;;;;;;4.92;2.58;;;;;;;23.01;46.01;97722.55;1589338;87;25934;-76
2022/08/11 13:09:44;;;;;;;3.70;1.87;;;;;;;22.93;46.51;97724.52;1636938;87;27404;-78
2022/08/11 13:14:59;;;;;;;2.92;1.10;;;;;;;22.54;46.45;97747.20;1614051;88;25751;-75
2022/08/11 13:17:28;;;;;;;2.30;1.20;;;;;;;22.42;46.24;97750.81;1604814;88;26718;-76
2022/08/11 13:19:57;;;;;;;0.80;0.80;;;;;;;22.31;46.22;97753.88;1600854;89;26010;-76
2022/08/11 13:22:26;;;;;;;1.27;1.00;;;;;;;22.25;46.47;97748.92;1617686;88;28038;-76
2022/08/11 13:24:54;;;;;;;3.95;1.00;;;;;;;22.22;46.48;97754.42;1606827;89;25879;-76
2022/08/11 13:27:22;;;;;;;4.28;1.32;;;;;;;22.20;46.68;97755.82;1633057;87;25767;-75
2022/08/11 13:29:49;;;;;;;1.30;0.90;;;;;;;22.17;46.58;97753.07;1632752;87;25843;-75
2022/08/11 13:32:18;;;;;;;4.22;0.95;;;;;;;22.10;46.54;97753.06;1632819;87;25807;-75
2022/08/11 13:34:45;;;;;;;2.70;1.00;;;;;;;22.07;46.78;97747.59;1632836;87;28102;-76
2022/08/11 13:37:14;;;;;;;1.42;1.12;;;;;;;22.02;46.90;97739.89;1632785;87;25809;-76
2022/08/11 13:39:47;;;;;;;3.42;1.15;;;;;;;22.05;47.06;97743.46;1632795;87;25811;-75
2022/08/11 13:42:19;;;;;;;4.90;1.20;;;;;;;22.05;47.01;97736.04;1632739;87;25755;-75
2022/08/11 13:44:46;;;;;;;2.85;1.27;;;;;;;21.91;47.31;97705.52;1698722;82;25732;-75
2022/08/11 13:47:14;;;;;;;2.37;1.17;;;;;;;22.05;47.57;97726.97;1744561;81;27612;-76
2022/08/11 13:49:41;;;;;;;1.20;1.07;;;;;;;22.10;47.93;97725.57;1744600;82;25880;-76
2022/08/11 13:52:14;;;;;;;2.55;1.22;;;;;;;22.08;47.54;97727.80;1746098;82;25724;-75
2022/08/11 13:54:42;;;;;;;1.62;1.12;;;;;;;22.03;47.23;97725.05;1697456;84;25803;-75
2022/08/11 13:57:13;;;;;;;2.62;1.45;;;;;;;22.03;47.28;97719.00;1697509;84;25949;-76
2022/08/11 13:59:45;;;;;;;4.70;1.77;;;;;;;22.00;47.23;97715.97;1697276;84;27396;-75
2022/08/11 14:02:16;;;;;;;4.42;1.70;;;;;;;21.93;47.48;97717.06;1697563;84;25743;-75
2022/08/11 14:04:50;;;;;;;7.05;1.40;;;;;;;21.79;47.54;97718.72;1697498;84;26861;-76
2022/08/11 14:07:21;;;;;;;4.53;1.40;;;;;;;21.76;47.67;97718.44;1697294;84;26638;-76
2022/08/11 14:09:56;;;;;;;1.72;1.35;;;;;;;21.81;47.94;97706.91;1697425;84;26062;-76
2022/08/11 14:15:32;;;;;;;6.00;1.77;;;;;;;21.80;47.71;97700.31;1697208;84;25318;-75
2022/08/11 14:18:10;;;;;;;3.52;1.60;;;;;;;21.85;48.09;97694.82;1701494;83;25502;-76
2022/08/11 14:23:34;;;;;;;4.03;2.60;;;;;;;21.80;48.09;97705.25;1708541;83;25916;-76
2022/08/11 14:28:47;;;;;;;3.83;2.42;;;;;;;21.78;48.08;97710.75;1680913;85;25779;-75
2022/08/11 14:31:15;;;;;;;3.95;1.85;;;;;;;21.64;47.70;97705.52;1680867;85;25739;-76
2022/08/11 14:33:44;;;;;;;2.33;1.47;;;;;;;21.83;48.12;97703.88;1656666;85;26577;-76
2022/08/11 14:36:11;;;;;;;2.67;1.27;;;;;;;22.07;47.99;97700.03;1681002;85;25754;-76
2022/08/11 14:38:39;;;;;;;2.20;1.17;;;;;;;22.24;47.55;97688.16;1681105;85;27430;-76
2022/08/11 14:49:29;;;;;;;0.95;0.95;;;;;;;23.14;47.04;97701.27;1662542;86;25550;-75
2022/08/11 14:51:57;;;;;;;2.80;1.40;;;;;;;23.36;46.63;97695.33;1679790;84;26833;-76
2022/08/11 14:57:12;;;;;;;2.83;0.90;;;;;;;23.59;46.08;97689.67;1686849;84;26453;-77
2022/08/11 14:59:42;;;;;;;2.72;1.30;;;;;;;23.66;46.23;97685.50;1686981;85;26582;-76
2022/08/11 15:04:59;;;;;;;3.08;1.37;;;;;;;23.76;45.84;97688.70;1681527;85;27430;-76
2022/08/11 15:07:30;;;;;;;6.58;1.47;;;;;;;23.79;45.51;97681.22;1640879;86;25880;-76
2022/08/11 15:10:04;;;;;;;2.67;1.10;;;;;;;23.88;45.36;97677.30;1681755;85;25799;-76
2022/08/11 15:12:33;;;;;;;3.60;1.07;;;;;;;23.96;45.08;97673.34;1681159;85;25862;-76
2022/08/11 15:17:49;;;;;;;3.35;1.32;;;;;;;23.83;45.05;97665.75;1675777;84;27382;-76
2022/08/11 15:25:57;;;;;;;2.47;1.02;;;;;;;23.51;44.90;97662.75;1667298;84;25854;-77
2022/08/11 15:47:58;;;;;;;1.42;0.80;;;;;;;23.76;43.63;97651.50;1500703;94;25812;-77
2022/08/11 15:50:29;;;;;;;2.62;0.70;;;;;;;23.75;43.47;97659.50;1504437;94;26787;-76
2022/08/11 15:53:06;;;;;;;1.07;0.98;;;;;;;23.74;43.00;97661.98;1503513;94;25902;-76
2022/08/11 15:55:35;;;;;;;2.30;0.80;;;;;;;23.68;43.18;97658.44;1447966;96;26573;-77
2022/08/11 16:04:11;;;;;;;1.15;0.75;;;;;;;23.78;43.06;97660.30;1446970;99;25781;-76
2022/08/11 16:06:55;;;;;;;3.05;0.75;;;;;;;23.77;43.32;97672.44;1447000;99;25882;-77
2022/08/11 16:09:28;;;;;;;3.10;1.00;;;;;;;23.60;43.02;97665.14;1452867;97;25983;-76
2022/08/11 16:11:59;;;;;;;0.98;0.88;;;;;;;23.52;43.00;97669.91;1436608;99;27653;-76
2022/08/11 16:17:16;;;;;;;1.85;0.62;;;;;;;23.42;43.38;97652.05;1434582;98;25925;-77
2022/08/11 16:19:45;;;;;;;2.55;0.80;;;;;;;23.35;43.28;97653.19;1446818;97;26757;-77
2022/08/11 16:22:16;;;;;;;1.15;0.90;;;;;;;23.22;43.30;97651.64;1471843;97;25973;-77
2022/08/11 16:24:45;;;;;;;0.90;0.75;;;;;;;23.22;43.49;97653.84;1469100;97;27453;-77
2022/08/11 16:27:13;;;;;;;4.08;0.95;;;;;;;23.24;43.63;97643.92;1471364;97;26045;-77
2022/08/11 16:29:44;;;;;;;1.20;0.80;;;;;;;23.08;43.48;97632.18;1471728;97;25947;-76
2022/08/11 16:32:15;;;;;;;1.30;1.20;;;;;;;22.94;43.39;97629.83;1471667;97;26625;-77
2022/08/11 16:40:21;;;;;;;1.87;1.00;;;;;;;22.76;44.44;97640.93;1489399;95;25338;-78
2022/08/11 16:48:27;;;;;;;2.72;1.90;;;;;;;22.47;44.18;97653.14;1557968;91;25343;-77
2022/08/11 16:50:54;;;;;;;1.40;1.30;;;;;;;22.23;44.48;97652.95;1538229;89;26225;-77
2022/08/11 16:53:22;;;;;;;1.62;1.50;;;;;;;22.16;44.62;97655.74;1680073;85;25799;-76
2022/08/11 16:55:50;;;;;;;1.40;1.00;;;;;;;22.14;45.05;97656.56;1680125;85;25747;-76
2022/08/11 17:01:03;;;;;;;1.92;1.00;;;;;;;22.15;45.29;97660.97;1660315;85;25679;-76
2022/08/11 17:15:00;;;;;;;2.25;1.12;;;;;;;21.80;45.96;97643.43;1789991;80;25612;-76
2022/08/11 17:17:36;;;;;;;1.37;0.82;;;;;;;21.81;46.05;97642.33;1790293;79;27374;-76
2022/08/11 17:20:08;;;;;;;1.67;1.00;;;;;;;21.60;46.67;97622.87;1749724;81;25878;-75
2022/08/11 17:25:27;;;;;;;1.17;0.72;;;;;;;21.44;46.73;97639.90;1725612;83;26447;-76
2022/08/11 17:27:55;;;;;;;1.02;0.80;;;;;;;21.44;46.73;97639.90;1725572;83;25911;-75
2022/08/11 17:35:27;;;;;;;0.82;0.82;;;;;;;21.36;46.95;97636.89;1725837;83;27416;-76
2022/08/11 17:35:43;;;;;;;2.83;1.55;;;;;;;21.16;47.04;97641.23;1725562;83;25683;-76
2022/08/11 17:38:20;;;;;;;1.75;1.20;;;;;;;20.99;47.07;97648.91;1725882;83;25892;-75
2022/08/11 17:49:19;;;;;;;1.90;1.67;;;;;;;20.72;48.31;97666.95;1725520;83;25771;-76
2022/08/11 18:00:09;;;;;;;3.87;2.25;;;;;;;20.52;48.98;97665.52;1724350;82;26457;-76
2022/08/11 18:05:28;;;;;;;3.67;2.15;;;;;;;20.35;49.32;97661.61;1724605;82;25778;-75
